Time;durP1;ratioP1;P1;durP2;ratioP2;P2;SDS_P1;SDS_P2;PMS_P1;PMS_P2;Temp;Humidity;BMP_temperature;BMP_pressure;BME280_temperature;BME280_humidity;BME280_pressure;Samples;Min_cycle;Max_cycle;Signal;HPM_P1;HPM_P2
2022/08/17 00:01:00;;;;;;;22.95;20.73;;;21.10;99.90;;;;;;5026222;28;20052;-58
2022/08/17 00:03:29;;;;;;;22.98;20.73;;;21.10;99.90;;;;;;5036802;28;20045;-58
2022/08/17 00:06:02;;;;;;;22.58;20.38;;;21.00;99.90;;;;;;5033666;28;20112;-59
2022/08/17 00:08:32;;;;;;;22.08;19.77;;;21.00;99.90;;;;;;5030741;28;20462;-60
2022/08/17 00:10:59;;;;;;;22.52;20.33;;;21.00;99.90;;;;;;5053112;28;20048;-59
2022/08/17 00:13:26;;;;;;;23.38;20.98;;;21.00;99.90;;;;;;5039427;28;20047;-58
2022/08/17 00:15:57;;;;;;;23.17;20.85;;;21.00;99.90;;;;;;5053572;28;20096;-59
2022/08/17 00:18:23;;;;;;;23.08;20.63;;;21.00;99.90;;;;;;5034730;28;20080;-59
2022/08/17 00:20:49;;;;;;;23.85;21.38;;;20.90;99.90;;;;;;5038766;28;20073;-59
2022/08/17 00:23:15;;;;;;;23.92;21.60;;;20.70;99.90;;;;;;5053168;28;20089;-58
2022/08/17 00:25:44;;;;;;;23.58;21.38;;;20.70;99.90;;;;;;5053163;28;20041;-58
2022/08/17 00:28:11;;;;;;;24.40;21.80;;;20.70;99.90;;;;;;5042846;28;20465;-58
2022/08/17 00:30:37;;;;;;;24.58;22.17;;;20.70;99.90;;;;;;5052613;28;20128;-58
2022/08/17 00:33:12;;;;;;;25.48;23.08;;;20.60;99.90;;;;;;5034485;28;20055;-58
2022/08/17 00:35:39;;;;;;;23.63;21.38;;;20.60;99.90;;;;;;5032626;28;20637;-58
2022/08/17 00:38:08;;;;;;;23.27;20.88;;;20.50;99.90;;;;;;5005218;28;20025;-58
2022/08/17 00:40:37;;;;;;;24.30;21.95;;;20.50;99.90;;;;;;5035094;28;20045;-58
2022/08/17 00:43:16;;;;;;;24.05;21.65;;;20.50;99.90;;;;;;5051229;28;20052;-58
2022/08/17 00:45:43;;;;;;;25.92;23.42;;;20.40;99.90;;;;;;5041832;28;20079;-59
2022/08/17 00:48:08;;;;;;;25.13;22.50;;;20.40;99.90;;;;;;5014281;28;20072;-58
2022/08/17 00:50:34;;;;;;;26.27;23.65;;;20.40;99.90;;;;;;5040756;28;20033;-58
2022/08/17 00:53:01;;;;;;;25.23;22.77;;;20.40;99.90;;;;;;5052697;28;20501;-59
2022/08/17 00:55:27;;;;;;;25.88;23.38;;;20.40;99.90;;;;;;5045835;28;20124;-59
2022/08/17 00:57:56;;;;;;;25.33;22.63;;;20.30;99.90;;;;;;5032002;28;20129;-58
2022/08/17 01:00:27;;;;;;;25.80;23.40;;;20.20;99.90;;;;;;5051227;28;20386;-58
2022/08/17 01:03:15;;;;;;;26.20;23.65;;;20.20;99.90;;;;;;5028684;28;20065;-58
2022/08/17 01:05:42;;;;;;;28.35;24.90;;;20.10;99.90;;;;;;5027280;28;20140;-59
2022/08/17 01:08:11;;;;;;;29.80;26.65;;;20.20;99.90;;;;;;5049605;28;20048;-58
2022/08/17 01:10:45;;;;;;;30.27;27.23;;;20.20;99.90;;;;;;5045831;28;20413;-58
2022/08/17 01:13:11;;;;;;;;;;;20.10;99.90;;;;;;5045946;28;20045;-59
2022/08/17 01:15:41;;;;;;;28.90;25.95;;;20.00;99.90;;;;;;5052110;28;19920;-59
2022/08/17 01:18:10;;;;;;;29.70;26.70;;;20.00;99.90;;;;;;5047740;28;20595;-58
2022/08/17 01:20:40;;;;;;;29.25;26.13;;;20.10;99.90;;;;;;5051256;28;20041;-59
2022/08/17 01:23:06;;;;;;;30.27;26.98;;;20.00;99.90;;;;;;5051804;28;20382;-59
2022/08/17 01:25:32;;;;;;;30.13;25.70;;;19.90;99.90;;;;;;5051761;28;20037;-59
2022/08/17 01:27:58;;;;;;;30.33;27.13;;;20.00;99.90;;;;;;5037697;28;20037;-58
2022/08/17 01:30:23;;;;;;;32.10;28.90;;;20.00;99.90;;;;;;5031174;28;20072;-58
2022/08/17 01:32:49;;;;;;;33.85;30.08;;;20.00;99.90;;;;;;5032016;28;20044;-58
2022/08/17 01:35:15;;;;;;;34.42;30.65;;;20.00;99.90;;;;;;5040622;28;20064;-58
2022/08/17 01:37:41;;;;;;;32.50;29.20;;;20.00;99.90;;;;;;5039863;28;20095;-59
2022/08/17 01:40:28;;;;;;;33.53;30.10;;;20.00;99.90;;;;;;5038190;28;20047;-58
2022/08/17 01:43:09;;;;;;;31.23;28.08;;;20.00;99.90;;;;;;5037834;28;20044;-59
2022/08/17 01:45:43;;;;;;;31.95;28.67;;;20.00;99.90;;;;;;5051768;28;20389;-58
2022/08/17 01:48:09;;;;;;;30.90;27.77;;;19.90;99.90;;;;;;5033606;28;20382;-59
2022/08/17 01:50:36;;;;;;;29.90;26.75;;;19.90;99.90;;;;;;5040098;28;20128;-59
2022/08/17 01:53:06;;;;;;;30.80;27.70;;;19.90;99.90;;;;;;5036308;28;20405;-59
2022/08/17 01:55:38;;;;;;;30.88;27.85;;;19.90;99.90;;;;;;5031012;28;20041;-58
2022/08/17 01:58:08;;;;;;;31.02;27.70;;;19.90;99.90;;;;;;5031186;28;20041;-59
2022/08/17 02:00:36;;;;;;;31.23;28.17;;;19.90;99.90;;;;;;5043912;28;20055;-59
2022/08/17 02:03:02;;;;;;;30.95;27.75;;;19.90;99.90;;;;;;5027304;28;20116;-58
2022/08/17 02:05:28;;;;;;;31.80;28.60;;;19.90;99.90;;;;;;5051536;28;20098;-59
2022/08/17 02:07:53;;;;;;;32.63;29.15;;;19.90;99.90;;;;;;5038234;28;20038;-59
2022/08/17 02:10:19;;;;;;;32.90;29.45;;;19.90;99.90;;;;;;5048201;28;20120;-59
2022/08/17 02:12:45;;;;;;;33.83;30.27;;;19.90;99.90;;;;;;5024136;28;20077;-61
2022/08/17 02:15:13;;;;;;;32.83;29.55;;;19.80;99.90;;;;;;5027492;28;20052;-59
2022/08/17 02:17:39;;;;;;;33.15;29.75;;;19.80;99.90;;;;;;5030037;28;20068;-59
2022/08/17 02:20:07;;;;;;;32.47;29.10;;;19.70;99.90;;;;;;5044772;28;20041;-59
2022/08/17 02:22:34;;;;;;;33.28;29.98;;;19.70;99.90;;;;;;5051026;28;20140;-59
2022/08/17 02:25:00;;;;;;;34.72;31.23;;;19.70;99.90;;;;;;5047129;28;20043;-59
2022/08/17 02:27:26;;;;;;;34.92;31.23;;;19.70;99.90;;;;;;5041708;28;20104;-59
2022/08/17 02:29:52;;;;;;;35.35;31.77;;;19.70;99.90;;;;;;5037084;28;20045;-60
2022/08/17 02:32:20;;;;;;;34.47;30.73;;;19.70;99.90;;;;;;5021455;28;20469;-59
2022/08/17 02:34:46;;;;;;;35.60;31.95;;;19.70;99.90;;;;;;5031175;28;20041;-59
2022/08/17 02:37:12;;;;;;;37.67;33.60;;;19.80;99.90;;;;;;5034076;28;20447;-59
2022/08/17 02:39:37;;;;;;;38.15;34.08;;;19.80;99.90;;;;;;5044597;28;20170;-59
2022/08/17 02:42:03;;;;;;;36.17;32.22;;;19.80;99.90;;;;;;5031534;28;20220;-59
2022/08/17 02:44:29;;;;;;;36.55;32.92;;;19.80;99.90;;;;;;5045712;28;20033;-59
2022/08/17 02:46:55;;;;;;;37.55;33.53;;;19.80;99.90;;;;;;5043428;28;20426;-59
2022/08/17 02:49:21;;;;;;;39.05;33.65;;;19.70;99.90;;;;;;5030783;28;20677;-59
2022/08/17 02:51:48;;;;;;;37.13;33.13;;;19.70;99.90;;;;;;5035156;28;20044;-59
2022/08/17 02:54:14;;;;;;;41.85;34.47;;;19.70;99.90;;;;;;5050989;28;20044;-59
2022/08/17 02:56:39;;;;;;;37.70;33.75;;;19.60;99.90;;;;;;5048024;28;20139;-62
2022/08/17 02:59:05;;;;;;;39.17;35.05;;;19.60;99.90;;;;;;5030963;28;20112;-59
2022/08/17 03:01:31;;;;;;;38.65;34.58;;;19.70;99.90;;;;;;5045353;28;20067;-59
2022/08/17 03:03:57;;;;;;;38.45;34.35;;;19.70;99.90;;;;;;5044102;28;20103;-59
2022/08/17 03:06:22;;;;;;;37.55;33.08;;;19.70;99.90;;;;;;5044764;28;20434;-59
2022/08/17 03:08:48;;;;;;;37.90;33.85;;;19.70;99.90;;;;;;5021139;28;20041;-59
2022/08/17 03:11:14;;;;;;;35.47;31.77;;;19.70;99.90;;;;;;5034019;28;20112;-59
2022/08/17 03:13:40;;;;;;;34.17;30.73;;;19.70;99.90;;;;;;5037591;28;20068;-59
2022/08/17 03:16:07;;;;;;;36.42;32.70;;;19.70;99.90;;;;;;5054476;28;20075;-59
2022/08/17 03:18:33;;;;;;;35.58;31.98;;;19.70;99.90;;;;;;5049800;28;20052;-59
2022/08/17 03:21:03;;;;;;;35.50;31.55;;;19.70;99.90;;;;;;5041144;28;20044;-59
2022/08/17 03:23:29;;;;;;;34.42;30.83;;;19.70;99.90;;;;;;5040379;28;20054;-58
2022/08/17 03:25:56;;;;;;;32.95;29.67;;;19.70;99.90;;;;;;5052056;28;20094;-60
2022/08/17 03:28:22;;;;;;;35.10;31.40;;;19.60;99.90;;;;;;5041768;28;20110;-59
2022/08/17 03:30:49;;;;;;;33.75;30.17;;;19.60;99.90;;;;;;5053584;28;20045;-59
2022/08/17 03:33:15;;;;;;;34.90;30.42;;;19.60;99.90;;;;;;5048028;28;20121;-59
2022/08/17 03:35:41;;;;;;;34.75;31.30;;;19.60;99.90;;;;;;5034152;28;20489;-59
2022/08/17 03:38:09;;;;;;;33.05;29.77;;;19.50;99.90;;;;;;5032999;28;20076;-59
2022/08/17 03:40:35;;;;;;;33.28;29.27;;;19.60;99.90;;;;;;5044128;28;20037;-60
2022/08/17 03:43:08;;;;;;;34.28;29.90;;;19.50;99.90;;;;;;5051621;28;20055;-58
2022/08/17 03:56:41;;;;;;;32.75;29.25;;;19.50;99.90;;;;;;5051634;28;20044;-59
2022/08/17 03:59:19;;;;;;;32.13;28.73;;;19.50;99.90;;;;;;5033768;28;20112;-59
2022/08/17 04:01:47;;;;;;;31.98;28.70;;;19.50;99.90;;;;;;5050360;28;20088;-59
2022/08/17 04:04:13;;;;;;;33.67;30.17;;;19.50;99.90;;;;;;5044463;28;20110;-58
2022/08/17 04:06:39;;;;;;;32.50;29.25;;;19.50;99.90;;;;;;5046388;28;20048;-59
2022/08/17 04:09:06;;;;;;;33.58;29.10;;;19.50;99.90;;;;;;5033566;28;20045;-60
2022/08/17 04:11:33;;;;;;;31.35;27.85;;;19.50;99.90;;;;;;5033079;28;20124;-59
2022/08/17 04:13:58;;;;;;;33.65;29.63;;;19.50;99.90;;;;;;5019618;28;20037;-58
2022/08/17 04:16:24;;;;;;;32.53;29.13;;;19.60;99.90;;;;;;5033662;28;20038;-59
2022/08/17 04:18:51;;;;;;;31.08;27.73;;;19.60;99.90;;;;;;5049928;28;20037;-59
2022/08/17 04:21:18;;;;;;;33.00;29.58;;;19.50;99.90;;;;;;5025436;28;20403;-59
2022/08/17 04:23:44;;;;;;;32.13;28.77;;;19.60;99.90;;;;;;5048909;28;20048;-60
2022/08/17 04:26:10;;;;;;;31.85;27.85;;;19.60;99.90;;;;;;5053042;28;20048;-59
2022/08/17 04:28:35;;;;;;;30.92;27.40;;;19.60;99.90;;;;;;5045026;28;20041;-60
2022/08/17 04:31:01;;;;;;;30.02;27.13;;;19.60;99.90;;;;;;5052543;28;20033;-59
2022/08/17 04:33:28;;;;;;;29.48;26.52;;;19.60;99.90;;;;;;5053257;28;20098;-59
2022/08/17 04:35:58;;;;;;;31.98;27.73;;;19.60;99.90;;;;;;5039110;28;20114;-59
2022/08/17 04:38:27;;;;;;;30.88;27.73;;;19.60;99.90;;;;;;5021178;28;20124;-59
2022/08/17 04:43:41;;;;;;;30.45;27.25;;;19.70;99.90;;;;;;5027211;28;20049;-59
2022/08/17 04:46:14;;;;;;;31.17;27.75;;;19.70;99.90;;;;;;5047131;28;20049;-59
2022/08/17 04:48:43;;;;;;;30.42;27.23;;;19.60;99.90;;;;;;5034665;28;20095;-59
2022/08/17 04:51:12;;;;;;;30.95;27.80;;;19.50;99.90;;;;;;5014922;28;20049;-59
2022/08/17 04:53:40;;;;;;;31.65;28.35;;;19.50;99.90;;;;;;5052268;28;20450;-59
2022/08/17 04:56:06;;;;;;;30.33;27.35;;;19.60;99.90;;;;;;5052773;28;20032;-59
2022/08/17 04:58:32;;;;;;;30.15;27.00;;;19.50;99.90;;;;;;5035371;28;20033;-58
2022/08/17 05:00:58;;;;;;;29.75;26.73;;;19.60;99.90;;;;;;5042586;28;20362;-61
2022/08/17 05:03:24;;;;;;;29.95;26.95;;;19.60;99.90;;;;;;5052719;28;20421;-59
2022/08/17 05:05:50;;;;;;;31.20;28.10;;;19.50;99.90;;;;;;5052145;28;20033;-59
2022/08/17 05:08:18;;;;;;;30.85;27.65;;;19.50;99.90;;;;;;5038318;28;20120;-59
2022/08/17 05:10:45;;;;;;;32.05;28.85;;;19.50;99.90;;;;;;5051439;28;20072;-58
2022/08/17 05:13:14;;;;;;;31.02;27.83;;;19.50;99.90;;;;;;5039291;28;20084;-59
2022/08/17 05:15:41;;;;;;;31.90;28.52;;;19.50;99.90;;;;;;5051619;28;20029;-59
2022/08/17 05:18:07;;;;;;;31.77;28.58;;;19.60;99.90;;;;;;5026765;28;20089;-59
2022/08/17 05:20:35;;;;;;;30.42;27.35;;;19.60;99.90;;;;;;5011804;28;20055;-59
2022/08/17 05:23:08;;;;;;;29.40;26.30;;;19.60;99.90;;;;;;5024762;28;20041;-59
2022/08/17 05:25:36;;;;;;;30.80;27.80;;;19.70;99.90;;;;;;5051771;28;20104;-59
2022/08/17 05:28:04;;;;;;;29.98;26.92;;;19.70;99.90;;;;;;5039125;28;20033;-59
2022/08/17 05:30:30;;;;;;;30.67;27.52;;;19.80;99.90;;;;;;5042591;28;20084;-59
2022/08/17 05:32:57;;;;;;;32.35;28.95;;;19.70;99.90;;;;;;5051801;28;20056;-59
2022/08/17 05:35:24;;;;;;;32.60;29.20;;;19.70;99.90;;;;;;5042390;28;20056;-59
2022/08/17 05:37:50;;;;;;;31.40;28.02;;;19.80;99.90;;;;;;5032701;28;20038;-59
2022/08/17 05:40:17;;;;;;;30.33;27.33;;;19.70;99.90;;;;;;5051278;28;20099;-59
2022/08/17 05:42:43;;;;;;;32.55;29.15;;;19.70;99.90;;;;;;5037838;28;20049;-58
2022/08/17 05:45:09;;;;;;;32.55;29.02;;;19.70;99.90;;;;;;5045822;28;20052;-59
2022/08/17 05:47:37;;;;;;;33.50;29.85;;;19.80;99.90;;;;;;5034810;28;20041;-59
2022/08/17 05:50:04;;;;;;;32.50;29.00;;;19.80;99.90;;;;;;5032002;28;20102;-59
2022/08/17 05:52:53;;;;;;;33.80;30.50;;;19.80;99.90;;;;;;5040721;28;20338;-59
2022/08/17 05:55:40;;;;;;;32.80;29.48;;;19.80;99.90;;;;;;5031170;28;20043;-59
2022/08/17 05:58:09;;;;;;;30.75;27.67;;;19.80;99.90;;;;;;5031340;28;20398;-59
2022/08/17 06:01:05;;;;;;;31.58;28.23;;;19.80;99.90;;;;;;5050245;28;20049;-59
2022/08/17 06:03:58;;;;;;;32.75;29.45;;;19.90;99.90;;;;;;5051446;28;20037;-58
2022/08/17 06:06:52;;;;;;;30.25;27.17;;;19.90;99.90;;;;;;5038517;28;20446;-58
2022/08/17 06:09:55;;;;;;;31.48;28.25;;;20.00;99.90;;;;;;5017893;28;20092;-59
2022/08/17 06:12:41;;;;;;;29.85;26.85;;;20.00;99.90;;;;;;5031499;28;20049;-59
2022/08/17 06:15:40;;;;;;;29.80;26.77;;;20.10;99.90;;;;;;5045448;28;20059;-58
2022/08/17 06:18:09;;;;;;;30.77;27.58;;;20.10;99.90;;;;;;5024420;28;20075;-58
2022/08/17 06:20:52;;;;;;;29.70;26.73;;;20.10;99.90;;;;;;5034623;28;20327;-58
2022/08/17 06:23:40;;;;;;;31.08;27.90;;;20.10;99.90;;;;;;5051149;28;20049;-59
2022/08/17 06:26:19;;;;;;;29.23;26.23;;;20.20;99.90;;;;;;5045686;28;20044;-59
2022/08/17 06:28:53;;;;;;;30.67;27.40;;;20.20;99.90;;;;;;5043808;28;20444;-59
2022/08/17 06:31:28;;;;;;;31.45;27.77;;;20.10;99.90;;;;;;5050703;28;20131;-59
2022/08/17 06:33:59;;;;;;;31.52;28.20;;;20.20;99.90;;;;;;5033594;28;20106;-58
2022/08/17 06:36:52;;;;;;;32.38;28.92;;;20.20;99.90;;;;;;5051113;28;20432;-58
2022/08/17 06:39:23;;;;;;;31.60;28.50;;;20.20;99.90;;;;;;5038483;28;20475;-58
2022/08/17 06:42:01;;;;;;;31.80;28.52;;;20.10;99.90;;;;;;5041105;28;20051;-58
2022/08/17 06:44:56;;;;;;;30.80;27.55;;;20.10;99.90;;;;;;5055251;28;20045;-59
2022/08/17 06:47:42;;;;;;;32.55;29.27;;;20.10;99.90;;;;;;5048398;28;20055;-59
2022/08/17 06:50:29;;;;;;;44.50;31.52;;;20.10;99.90;;;;;;5054034;28;20048;-60
2022/08/17 06:53:37;;;;;;;39.83;31.25;;;20.10;99.90;;;;;;5055302;28;20421;-59
2022/08/17 06:56:12;;;;;;;35.38;31.65;;;20.00;99.90;;;;;;5054743;28;20040;-59
2022/08/17 06:58:42;;;;;;;36.42;32.63;;;19.80;99.90;;;;;;5028363;28;20047;-58
2022/08/17 07:01:22;;;;;;;39.17;34.13;;;19.80;99.90;;;;;;5046108;28;20045;-58
2022/08/17 07:04:20;;;;;;;37.08;32.95;;;19.70;99.90;;;;;;5054776;28;20083;-58
2022/08/17 07:06:55;;;;;;;38.72;34.60;;;19.60;99.90;;;;;;5052000;28;20060;-59
2022/08/17 07:09:24;;;;;;;38.22;34.13;;;19.70;99.90;;;;;;5023769;28;20087;-59
2022/08/17 07:12:02;;;;;;;39.40;35.10;;;19.70;99.90;;;;;;5033158;28;20423;-59
2022/08/17 07:14:38;;;;;;;38.47;34.55;;;19.70;99.90;;;;;;5054703;28;20373;-58
2022/08/17 07:17:10;;;;;;;38.15;33.92;;;19.70;99.90;;;;;;5049251;28;20057;-58
2022/08/17 07:19:39;;;;;;;37.80;33.55;;;19.70;99.90;;;;;;5033431;28;20036;-59
2022/08/17 07:22:23;;;;;;;34.45;30.77;;;19.70;99.90;;;;;;5054019;28;20113;-59
2022/08/17 07:24:56;;;;;;;38.50;34.45;;;19.70;99.90;;;;;;5054376;28;20115;-59
2022/08/17 07:27:31;;;;;;;40.80;35.90;;;19.70;99.90;;;;;;5039884;28;20041;-59
2022/08/17 07:30:10;;;;;;;39.45;35.13;;;19.70;99.90;;;;;;5027710;28;20381;-59
2022/08/17 07:32:42;;;;;;;43.55;35.97;;;19.70;99.90;;;;;;5040051;28;20037;-59
2022/08/17 07:35:14;;;;;;;39.00;34.95;;;19.80;99.90;;;;;;5036311;28;20116;-59
2022/08/17 07:38:23;;;;;;;37.58;33.53;;;19.80;99.90;;;;;;5045567;28;20041;-59
2022/08/17 07:40:49;;;;;;;37.45;33.55;;;19.80;99.90;;;;;;5053667;28;20040;-59
2022/08/17 07:43:19;;;;;;;32.65;29.35;;;19.80;99.90;;;;;;5053933;28;20049;-59
2022/08/17 07:48:52;;;;;;;;;;;19.80;99.90;;;;;;5044628;28;20055;-59
2022/08/17 07:51:20;;;;;;;36.22;32.40;;;19.90;99.90;;;;;;5053674;28;19942;-59
2022/08/17 07:53:46;;;;;;;35.67;31.88;;;19.90;99.90;;;;;;5035582;28;20434;-58
2022/08/17 07:56:43;;;;;;;35.10;31.25;;;20.00;99.90;;;;;;5053811;28;20037;-59
2022/08/17 07:59:33;;;;;;;38.92;34.83;;;20.10;99.90;;;;;;5041836;28;20330;-59
2022/08/17 08:02:21;;;;;;;39.15;35.00;;;20.20;99.90;;;;;;5053730;28;20060;-60
2022/08/17 08:05:12;;;;;;;35.72;31.90;;;20.30;99.90;;;;;;5042875;28;20052;-59
2022/08/17 08:07:59;;;;;;;37.53;33.47;;;20.60;99.90;;;;;;5036410;28;20385;-59
2022/08/17 08:10:38;;;;;;;36.72;32.90;;;20.80;99.90;;;;;;5033123;28;20088;-59
2022/08/17 08:13:22;;;;;;;35.38;31.77;;;20.90;99.90;;;;;;5045191;28;20359;-59
2022/08/17 08:16:08;;;;;;;;;;;20.90;99.90;;;;;;5026859;28;20028;-59
2022/08/17 08:18:36;;;;;;;36.75;32.95;;;20.90;99.90;;;;;;5020601;28;20266;-59
2022/08/17 08:21:09;;;;;;;36.28;32.35;;;20.80;99.90;;;;;;5052888;28;20033;-59
2022/08/17 08:23:46;;;;;;;33.47;29.77;;;20.70;99.90;;;;;;5052848;28;20508;-59
2022/08/17 08:26:45;;;;;;;34.88;31.27;;;20.70;99.90;;;;;;5053233;28;20684;-59
2022/08/17 08:29:22;;;;;;;33.85;30.35;;;20.80;99.90;;;;;;5046344;28;20053;-60
2022/08/17 08:31:57;;;;;;;32.20;28.80;;;20.80;99.90;;;;;;5053011;28;20474;-60
2022/08/17 08:34:44;;;;;;;32.28;28.98;;;20.80;99.90;;;;;;5052940;28;20110;-60
2022/08/17 08:37:13;;;;;;;36.58;31.35;;;20.90;99.90;;;;;;5048805;28;20042;-59
2022/08/17 08:40:09;;;;;;;34.95;31.23;;;20.90;99.90;;;;;;5049059;28;20055;-59
2022/08/17 08:42:55;;;;;;;33.92;30.08;;;20.90;99.90;;;;;;5052642;28;20045;-59
2022/08/17 08:45:48;;;;;;;33.05;29.48;;;20.90;99.90;;;;;;5052857;28;20044;-59
2022/08/17 08:48:30;;;;;;;34.42;30.92;;;21.00;99.90;;;;;;5042336;28;20490;-59
2022/08/17 08:51:28;;;;;;;32.85;29.45;;;21.10;99.90;;;;;;5052341;28;20052;-58
2022/08/17 08:54:06;;;;;;;34.88;31.08;;;21.10;99.90;;;;;;5052607;28;20398;-58
2022/08/17 08:57:16;;;;;;;35.28;31.60;;;21.20;99.90;;;;;;5052311;28;20040;-59
2022/08/17 09:00:09;;;;;;;33.20;29.65;;;21.40;99.90;;;;;;5031730;28;20078;-59
2022/08/17 09:03:10;;;;;;;34.58;30.88;;;21.40;99.90;;;;;;5052645;28;20090;-59
2022/08/17 09:06:18;;;;;;;30.50;27.30;;;21.50;99.90;;;;;;5045230;28;20076;-59
2022/08/17 09:08:50;;;;;;;31.13;28.00;;;21.80;99.90;;;;;;4988560;28;20050;-59
2022/08/17 09:11:23;;;;;;;31.20;28.10;;;21.90;99.90;;;;;;5043905;28;20041;-59
2022/08/17 09:14:24;;;;;;;29.65;26.60;;;21.90;99.90;;;;;;5051981;28;20029;-59
2022/08/17 09:17:47;;;;;;;31.35;28.23;;;22.00;99.90;;;;;;5028463;28;20445;-58
2022/08/17 09:20:30;;;;;;;30.25;27.05;;;22.10;99.90;;;;;;4963979;28;20112;-59
2022/08/17 09:23:33;;;;;;;30.23;27.30;;;22.20;99.90;;;;;;4990645;28;20050;-59
2022/08/17 09:26:15;;;;;;;30.80;27.60;;;22.10;99.90;;;;;;5074884;28;20435;-59
2022/08/17 09:28:47;;;;;;;28.20;25.42;;;22.10;99.90;;;;;;5083882;28;20127;-58
2022/08/17 09:31:34;;;;;;;30.83;27.90;;;22.30;99.90;;;;;;5088789;28;20116;-58
2022/08/17 09:34:04;;;;;;;29.25;26.30;;;22.40;99.90;;;;;;5089121;28;20123;-58
2022/08/17 09:36:42;;;;;;;28.20;25.27;;;22.40;99.90;;;;;;5088490;28;20044;-58
2022/08/17 09:39:29;;;;;;;29.10;26.20;;;22.50;99.90;;;;;;5081631;28;20063;-59
2022/08/17 09:42:02;;;;;;;28.70;25.90;;;22.50;99.90;;;;;;5089168;28;20056;-58
2022/08/17 09:44:38;;;;;;;28.17;25.20;;;22.40;99.90;;;;;;5088711;28;20052;-58
2022/08/17 09:47:11;;;;;;;28.25;25.40;;;22.40;99.90;;;;;;5086717;28;20040;-58
2022/08/17 09:49:54;;;;;;;28.70;25.65;;;22.40;99.90;;;;;;5082566;28;20051;-58
2022/08/17 09:52:21;;;;;;;28.23;25.53;;;22.50;99.90;;;;;;5088415;28;20044;-58
2022/08/17 09:54:50;;;;;;;29.88;26.88;;;22.40;99.90;;;;;;5088358;28;20044;-58
2022/08/17 09:57:27;;;;;;;29.27;26.45;;;22.50;99.90;;;;;;5080463;28;20047;-59
2022/08/17 10:00:17;;;;;;;29.63;26.63;;;22.60;99.90;;;;;;5081913;28;20050;-58
2022/08/17 10:03:16;;;;;;;30.92;27.92;;;22.70;99.90;;;;;;5088454;28;20032;-59
2022/08/17 10:06:01;;;;;;;29.50;26.73;;;22.60;99.90;;;;;;5062677;28;20072;-59
2022/08/17 10:08:56;;;;;;;30.38;27.48;;;22.80;99.90;;;;;;5076404;28;20048;-59
2022/08/17 10:14:30;;;;;;;32.40;29.17;;;22.90;99.90;;;;;;5087792;28;20075;-58
2022/08/17 10:17:14;;;;;;;31.95;28.80;;;22.90;99.90;;;;;;5087425;28;20106;-58
2022/08/17 10:19:52;;;;;;;31.92;28.83;;;22.80;99.90;;;;;;5077679;28;20032;-58
2022/08/17 10:28:12;;;;;;;26.08;23.52;;;22.90;99.90;;;;;;5083002;28;20059;-59
2022/08/17 10:30:47;;;;;;;25.85;23.38;;;23.10;99.90;;;;;;5087356;28;20062;-59
2022/08/17 10:33:24;;;;;;;25.85;23.23;;;23.20;99.90;;;;;;5087697;28;20044;-59
2022/08/17 10:36:05;;;;;;;25.40;22.73;;;23.40;99.90;;;;;;5083621;28;20083;-60
2022/08/17 10:38:44;;;;;;;25.25;22.55;;;23.70;99.90;;;;;;5047197;28;20179;-59
2022/08/17 10:41:27;;;;;;;25.73;22.85;;;23.80;99.90;;;;;;5069273;28;20051;-59
2022/08/17 10:44:03;;;;;;;23.80;21.60;;;23.90;99.90;;;;;;5074100;28;20055;-60
2022/08/17 10:46:51;;;;;;;24.17;21.77;;;24.00;99.90;;;;;;5074040;28;20424;-59
2022/08/17 10:49:17;;;;;;;24.95;22.42;;;24.10;99.90;;;;;;5065654;28;20044;-60
2022/08/17 10:51:53;;;;;;;24.83;22.23;;;24.00;99.90;;;;;;5073604;28;20033;-59
2022/08/17 10:54:33;;;;;;;25.83;23.35;;;24.00;99.90;;;;;;5061363;28;20052;-59
2022/08/17 10:56:59;;;;;;;23.35;20.98;;;24.00;99.90;;;;;;5072241;28;20480;-59
2022/08/17 10:59:34;;;;;;;25.45;22.77;;;23.90;99.90;;;;;;5064556;28;20062;-61
2022/08/17 11:02:21;;;;;;;25.17;22.65;;;24.10;99.90;;;;;;5073698;28;20103;-59
2022/08/17 11:04:59;;;;;;;27.60;24.75;;;24.00;99.90;;;;;;5073723;28;20078;-59
2022/08/17 11:07:34;;;;;;;27.92;25.23;;;24.10;99.90;;;;;;5042600;28;20052;-59
2022/08/17 11:10:44;;;;;;;28.13;25.13;;;24.10;99.90;;;;;;5066526;28;20040;-59
2022/08/17 11:13:28;;;;;;;27.25;24.45;;;24.30;99.90;;;;;;5073192;28;20037;-59
2022/08/17 11:16:12;;;;;;;27.60;24.70;;;24.20;99.90;;;;;;5047622;28;20036;-59
2022/08/17 11:19:23;;;;;;;27.80;25.00;;;24.30;99.90;;;;;;5060035;28;20092;-60
2022/08/17 11:22:02;;;;;;;28.40;25.60;;;24.40;99.90;;;;;;5073130;28;20041;-60
2022/08/17 11:24:50;;;;;;;26.77;24.15;;;24.40;99.90;;;;;;5048310;28;20052;-61
2022/08/17 11:27:34;;;;;;;27.50;24.63;;;24.40;99.90;;;;;;5070684;28;20071;-59
2022/08/17 11:30:06;;;;;;;28.70;25.88;;;24.60;99.90;;;;;;5047263;28;20040;-61
2022/08/17 11:32:52;;;;;;;29.53;26.20;;;24.70;99.90;;;;;;5072731;28;20420;-59
2022/08/17 11:35:21;;;;;;;30.60;27.55;;;24.80;99.90;;;;;;5072603;28;20291;-59
2022/08/17 11:37:55;;;;;;;27.83;25.00;;;24.80;99.90;;;;;;5066787;28;20037;-59
2022/08/17 11:40:45;;;;;;;28.25;25.27;;;24.80;99.90;;;;;;5072693;28;20048;-59
2022/08/17 11:43:40;;;;;;;28.17;25.30;;;24.70;99.90;;;;;;5072638;28;20407;-60
2022/08/17 11:46:12;;;;;;;26.38;23.88;;;24.70;99.90;;;;;;5072525;28;20397;-59
2022/08/17 11:52:00;;;;;;;26.67;24.05;;;24.80;99.90;;;;;;5072846;28;20063;-60
2022/08/17 11:54:47;;;;;;;26.67;23.98;;;24.70;99.90;;;;;;5072781;28;20145;-59
2022/08/17 11:57:24;;;;;;;25.65;23.02;;;24.60;99.90;;;;;;5064930;28;20477;-59
2022/08/17 12:00:10;;;;;;;25.73;22.95;;;24.60;99.90;;;;;;5066755;28;20472;-60
2022/08/17 12:02:43;;;;;;;25.95;22.65;;;24.60;99.90;;;;;;5063023;28;20067;-59
2022/08/17 12:05:21;;;;;;;25.45;22.95;;;24.60;99.90;;;;;;5069371;28;20083;-59
2022/08/17 12:07:50;;;;;;;23.23;20.85;;;24.60;99.90;;;;;;5065633;28;20112;-59
2022/08/17 12:10:20;;;;;;;24.10;21.73;;;24.70;99.90;;;;;;5065920;28;20044;-59
2022/08/17 12:12:49;;;;;;;25.13;22.45;;;24.80;99.90;;;;;;5061838;28;20035;-59
2022/08/17 12:15:27;;;;;;;24.65;22.13;;;24.80;99.90;;;;;;5072229;28;20147;-58
2022/08/17 12:17:55;;;;;;;25.33;22.83;;;24.80;99.90;;;;;;5064780;28;20076;-58
2022/08/17 12:20:23;;;;;;;23.95;21.35;;;24.80;99.90;;;;;;5067439;28;20150;-59
2022/08/17 12:23:07;;;;;;;24.58;21.52;;;24.80;99.90;;;;;;5071676;28;20469;-58
2022/08/17 12:25:36;;;;;;;;;;;24.80;99.90;;;;;;5072063;28;20166;-59
2022/08/17 12:28:02;;;;;;;25.42;22.77;;;24.80;99.90;;;;;;5068209;28;20117;-59
2022/08/17 12:30:28;;;;;;;24.60;22.20;;;24.80;99.90;;;;;;5071787;28;20102;-58
2022/08/17 12:32:54;;;;;;;24.15;21.67;;;24.80;99.90;;;;;;5071892;28;20036;-58
2022/08/17 12:35:33;;;;;;;25.90;23.20;;;24.90;99.90;;;;;;5072192;28;20044;-58
2022/08/17 12:38:00;;;;;;;25.92;22.38;;;24.90;99.90;;;;;;5063493;28;20303;-58
2022/08/17 12:40:30;;;;;;;29.63;24.27;;;25.00;99.90;;;;;;5060771;28;20072;-59
2022/08/17 12:43:19;;;;;;;24.60;22.10;;;25.00;99.90;;;;;;5072168;28;20112;-59
2022/08/17 12:45:55;;;;;;;24.35;21.77;;;24.90;99.90;;;;;;5071613;28;20372;-58
2022/08/17 12:48:24;;;;;;;24.60;21.15;;;24.80;99.90;;;;;;5063996;28;20043;-58
2022/08/17 12:50:50;;;;;;;25.48;21.45;;;24.80;99.90;;;;;;5071834;28;20043;-58
2022/08/17 12:53:21;;;;;;;24.77;22.27;;;24.80;99.90;;;;;;5071489;28;20058;-59
2022/08/17 12:55:48;;;;;;;24.10;21.70;;;24.80;99.90;;;;;;5070417;28;20044;-59
2022/08/17 12:58:20;;;;;;;23.85;21.02;;;24.70;99.90;;;;;;5062727;28;20461;-58
2022/08/17 13:00:54;;;;;;;23.13;20.73;;;24.80;99.90;;;;;;5070650;28;20420;-58
2022/08/17 13:03:22;;;;;;;24.35;21.85;;;24.70;99.90;;;;;;5071584;28;20115;-59
2022/08/17 13:05:51;;;;;;;26.92;24.08;;;24.60;99.90;;;;;;5071510;28;20056;-58
2022/08/17 13:08:19;;;;;;;25.20;22.55;;;24.60;99.90;;;;;;5061156;28;20033;-58
2022/08/17 13:10:55;;;;;;;25.92;23.23;;;24.50;99.90;;;;;;5071059;28;20048;-59
2022/08/17 13:13:26;;;;;;;25.80;23.20;;;24.40;99.90;;;;;;5057397;28;20048;-59
2022/08/17 13:16:01;;;;;;;28.30;25.27;;;24.20;99.90;;;;;;5071844;28;20041;-59
2022/08/17 13:18:46;;;;;;;26.80;24.10;;;24.10;99.90;;;;;;5059618;28;20041;-59
2022/08/17 13:21:18;;;;;;;31.52;27.10;;;23.80;99.90;;;;;;5071713;28;20040;-60
2022/08/17 13:24:01;;;;;;;26.90;23.58;;;23.70;99.90;;;;;;5071582;28;20044;-62
2022/08/17 13:26:50;;;;;;;29.13;25.92;;;23.60;99.90;;;;;;5070763;28;20400;-59
2022/08/17 13:29:43;;;;;;;28.98;24.67;;;23.50;99.90;;;;;;5068804;28;20048;-59
2022/08/17 13:32:10;;;;;;;28.88;25.88;;;23.30;99.90;;;;;;5061094;28;20045;-59
2022/08/17 13:34:35;;;;;;;28.02;25.20;;;23.20;99.90;;;;;;5065667;28;20041;-59